Time;durP1;ratioP1;P1;durP2;ratioP2;P2;SDS_P1;SDS_P2;PMS_P1;PMS_P2;Temp;Humidity;BMP_temperature;BMP_pressure;BME280_temperature;BME280_humidity;BME280_pressure;Samples;Min_cycle;Max_cycle;Signal;HPM_P1;HPM_P2
2023/09/10 00:00:37;;;;;;;17.83;12.07;;;;;;;23.60;46.73;101427.19;4902313;28;20747;-81
2023/09/10 00:03:10;;;;;;;23.10;12.25;;;;;;;23.65;47.08;101430.13;4915190;28;20066;-80
2023/09/10 00:05:52;;;;;;;19.98;12.23;;;;;;;23.68;46.68;101424.31;4910776;28;20050;-80
2023/09/10 00:08:28;;;;;;;17.08;12.07;;;;;;;23.68;46.28;101429.72;4891793;28;20085;-79
2023/09/10 00:11:01;;;;;;;21.70;12.82;;;;;;;23.57;46.25;101413.19;4884187;28;20567;-81
2023/09/10 00:13:35;;;;;;;18.33;13.00;;;;;;;23.62;46.58;101440.56;4924772;28;20050;-79
2023/09/10 00:16:02;;;;;;;18.73;11.50;;;;;;;23.15;46.64;101348.22;4908561;28;20437;-80
2023/09/10 00:18:34;;;;;;;18.08;11.85;;;;;;;23.61;46.72;101423.44;4921515;28;20070;-77
2023/09/10 00:21:03;;;;;;;25.05;11.43;;;;;;;23.52;46.78;101430.09;4917525;28;20339;-79
2023/09/10 00:23:35;;;;;;;21.20;12.95;;;;;;;23.57;46.70;101433.03;4921833;28;20109;-81
2023/09/10 00:26:03;;;;;;;16.67;12.20;;;;;;;23.49;46.87;101424.22;4941205;28;20526;-79
2023/09/10 00:28:31;;;;;;;17.92;12.15;;;;;;;23.50;47.11;101432.16;4896552;28;20058;-80
2023/09/10 00:31:04;;;;;;;17.05;12.10;;;;;;;23.44;46.84;101424.84;4903186;28;20046;-80
2023/09/10 00:33:36;;;;;;;18.70;12.25;;;;;;;23.37;46.97;101415.84;4892794;28;20046;-79
2023/09/10 00:36:18;;;;;;;17.23;11.75;;;;;;;23.41;47.39;101419.81;4911036;28;20466;-80
2023/09/10 00:38:45;;;;;;;16.05;12.05;;;;;;;23.35;47.28;101423.31;4973204;28;20472;-80
2023/09/10 00:41:12;;;;;;;19.05;11.90;;;;;;;23.43;47.29;101432.13;4964854;28;20141;-80
2023/09/10 00:43:39;;;;;;;18.23;11.90;;;;;;;23.40;47.07;101432.53;4963634;28;20628;-80
2023/09/10 00:46:08;;;;;;;19.35;12.32;;;;;;;23.29;47.35;101402.47;4958104;28;20056;-76
2023/09/10 00:48:37;;;;;;;16.90;12.30;;;;;;;23.42;46.79;101433.19;4960513;28;20046;-80
2023/09/10 00:51:04;;;;;;;20.30;12.82;;;;;;;23.34;47.14;101421.66;4960813;28;20046;-80
2023/09/10 00:53:31;;;;;;;18.83;11.93;;;;;;;23.03;47.26;101377.75;4946398;28;20056;-79
2023/09/10 00:56:02;;;;;;;14.85;11.63;;;;;;;23.39;46.96;101438.16;4959699;28;20058;-79
2023/09/10 00:58:29;;;;;;;15.18;11.63;;;;;;;23.29;47.00;101421.44;4947322;28;20065;-80
2023/09/10 01:00:59;;;;;;;18.15;11.73;;;;;;;23.35;46.81;101434.16;4922775;28;20132;-81
2023/09/10 01:03:27;;;;;;;17.15;11.73;;;;;;;23.18;46.72;101398.44;4910947;28;20058;-80
2023/09/10 01:05:56;;;;;;;20.92;11.95;;;;;;;23.58;50.36;101433.88;4901024;28;20074;-79
2023/09/10 01:08:28;;;;;;;17.60;11.63;;;;;;;23.72;49.74;101426.63;4913779;28;20129;-79
2023/09/10 01:11:05;;;;;;;19.58;11.40;;;;;;;23.18;46.32;101339.72;4952686;28;20125;-79
2023/09/10 01:13:53;;;;;;;14.02;11.45;;;;;;;23.72;46.14;101419.31;4962861;28;20050;-78
2023/09/10 01:16:38;;;;;;;14.75;11.10;;;;;;;23.86;49.56;101414.78;4949107;28;20395;-77
2023/09/10 01:19:39;;;;;;;18.73;11.52;;;;;;;23.86;46.64;101409.38;4949368;28;20174;-80
2023/09/10 01:22:16;;;;;;;19.08;11.30;;;;;;;23.51;46.17;101363.38;4946667;28;20125;-78
2023/09/10 01:24:51;;;;;;;16.38;11.63;;;;;;;23.81;45.74;101414.56;4946423;28;20806;-79
2023/09/10 01:27:21;;;;;;;14.38;9.98;;;;;;;23.67;46.30;101400.97;4948460;28;20058;-80
2023/09/10 01:29:51;;;;;;;14.43;10.93;;;;;;;23.64;46.11;101401.38;4946699;28;20053;-78
2023/09/10 01:32:35;;;;;;;13.15;10.15;;;;;;;23.45;45.24;101381.28;4959905;28;20054;-79
2023/09/10 01:35:21;;;;;;;13.10;10.82;;;;;;;23.31;46.37;101363.31;4915658;28;20486;-78
2023/09/10 01:37:57;;;;;;;16.48;10.68;;;;;;;23.35;46.07;101352.88;4883194;28;20277;-79
2023/09/10 01:40:34;;;;;;;15.38;10.95;;;;;;;23.86;47.08;101414.78;4891993;28;20143;-80
2023/09/10 01:43:05;;;;;;;13.45;10.60;;;;;;;23.68;46.05;101383.63;4942978;28;20120;-78
2023/09/10 01:45:39;;;;;;;16.90;11.20;;;;;;;23.86;46.12;101410.22;4944443;28;20674;-78
2023/09/10 01:48:15;;;;;;;22.63;10.93;;;;;;;23.80;45.69;101399.34;4929062;28;20949;-80
2023/09/10 01:50:52;;;;;;;18.88;11.75;;;;;;;23.75;45.67;101401.84;4894714;28;20488;-78
2023/09/10 01:53:29;;;;;;;16.05;11.45;;;;;;;23.77;45.15;101407.91;4913068;28;20280;-78
2023/09/10 01:56:00;;;;;;;15.52;10.57;;;;;;;23.70;45.35;101401.59;4908756;28;20054;-79
2023/09/10 01:58:27;;;;;;;18.50;11.05;;;;;;;23.68;45.41;101407.22;4915096;28;20061;-79
2023/09/10 02:00:54;;;;;;;17.60;11.23;;;;;;;23.63;45.52;101415.94;4948867;28;20365;-80
2023/09/10 02:03:28;;;;;;;15.35;11.27;;;;;;;23.63;49.04;101383.41;4940040;28;20042;-80
2023/09/10 02:06:03;;;;;;;26.13;12.02;;;;;;;23.67;46.23;101384.69;4965169;28;20675;-80
2023/09/10 02:08:33;;;;;;;15.90;10.13;;;;;;;23.71;45.76;101400.53;4953855;28;20071;-79
2023/09/10 02:11:05;;;;;;;14.05;10.57;;;;;;;23.63;45.75;101413.22;4969389;28;20166;-79
2023/09/10 02:13:33;;;;;;;13.77;10.88;;;;;;;23.50;45.98;101405.06;4961038;28;20393;-78
2023/09/10 02:16:02;;;;;;;18.00;10.82;;;;;;;23.51;46.34;101414.03;4950155;28;20057;-79
2023/09/10 02:18:29;;;;;;;18.50;11.45;;;;;;;23.55;47.63;101437.81;4925031;28;20291;-79
2023/09/10 02:21:00;;;;;;;14.57;10.23;;;;;;;23.64;49.72;101444.75;4964320;28;20479;-79
2023/09/10 02:23:26;;;;;;;18.75;11.57;;;;;;;24.13;52.52;101442.81;4960180;28;20133;-78
2023/09/10 02:25:53;;;;;;;15.32;11.43;;;;;;;24.04;47.20;101428.59;4931724;28;20282;-80
2023/09/10 02:28:23;;;;;;;16.80;12.38;;;;;;;23.79;46.99;101430.22;4942557;28;20038;-80
2023/09/10 02:30:53;;;;;;;16.23;11.52;;;;;;;23.60;47.71;101426.38;4935285;28;20068;-78
2023/09/10 02:33:24;;;;;;;17.52;11.57;;;;;;;23.70;49.29;101415.16;4939649;28;20460;-78
2023/09/10 02:35:51;;;;;;;16.67;11.77;;;;;;;23.52;47.45;101424.69;4939813;28;20062;-79
2023/09/10 02:38:19;;;;;;;20.17;12.82;;;;;;;23.31;47.53;101411.25;4927205;28;20132;-80
2023/09/10 02:40:48;;;;;;;17.77;12.68;;;;;;;23.19;48.68;101409.09;4918783;28;20081;-80
2023/09/10 02:43:15;;;;;;;16.80;12.18;;;;;;;23.27;48.43;101424.34;4943327;28;20052;-78
2023/09/10 02:45:41;;;;;;;19.98;13.05;;;;;;;23.28;48.36;101438.69;4938706;28;20231;-77
2023/09/10 02:48:09;;;;;;;19.67;12.85;;;;;;;23.08;48.31;101423.19;4934973;28;20050;-79
2023/09/10 02:50:36;;;;;;;14.85;12.07;;;;;;;23.03;48.69;101431.94;4941677;28;20054;-79
2023/09/10 02:53:03;;;;;;;15.55;11.70;;;;;;;22.84;49.73;101397.38;4937518;28;20046;-79
2023/09/10 02:55:30;;;;;;;15.55;12.23;;;;;;;23.00;48.74;101431.47;4942861;28;20208;-78
2023/09/10 02:57:57;;;;;;;19.27;12.40;;;;;;;22.87;48.66;101428.66;4936665;28;20050;-79
2023/09/10 03:00:25;;;;;;;17.83;12.07;;;;;;;22.90;49.43;101428.25;4937185;28;20070;-80
2023/09/10 03:02:56;;;;;;;20.50;12.20;;;;;;;22.69;48.87;101402.91;4963845;28;20560;-78
2023/09/10 03:05:23;;;;;;;18.93;11.80;;;;;;;22.80;50.15;101410.47;4985952;28;20322;-79
2023/09/10 03:07:52;;;;;;;15.80;12.38;;;;;;;22.54;49.25;101362.41;4956405;28;20308;-79
2023/09/10 03:10:19;;;;;;;19.77;12.02;;;;;;;22.64;48.91;101399.94;4935709;28;20046;-78
2023/09/10 03:12:46;;;;;;;17.80;11.43;;;;;;;22.62;48.91;101410.13;4972259;28;20053;-78
2023/09/10 03:15:13;;;;;;;19.35;12.27;;;;;;;22.53;49.38;101398.63;4962554;28;20524;-78
2023/09/10 03:17:40;;;;;;;17.92;11.48;;;;;;;22.65;49.29;101430.53;4948704;28;20112;-77
2023/09/10 03:20:10;;;;;;;17.58;12.15;;;;;;;22.57;51.01;101432.38;4976861;28;20054;-80
2023/09/10 03:22:37;;;;;;;14.15;10.68;;;;;;;22.45;50.27;101401.44;4962645;28;20641;-80
2023/09/10 03:25:05;;;;;;;16.23;11.90;;;;;;;22.54;49.26;101423.81;4944980;28;20065;-78
2023/09/10 03:27:36;;;;;;;20.33;11.75;;;;;;;22.56;48.97;101429.88;4932445;28;20054;-78
2023/09/10 03:30:10;;;;;;;18.13;12.25;;;;;;;22.50;49.00;101431.50;4955309;28;20530;-79
2023/09/10 03:32:39;;;;;;;16.38;12.27;;;;;;;22.55;48.72;101426.34;4936485;28;20068;-79
2023/09/10 03:35:08;;;;;;;16.10;11.25;;;;;;;22.31;49.07;101411.34;4964517;28;20045;-78
2023/09/10 03:37:35;;;;;;;14.98;11.73;;;;;;;22.34;48.76;101421.75;4970909;28;20054;-77
2023/09/10 03:40:12;;;;;;;17.30;11.43;;;;;;;22.46;48.57;101440.19;4961275;28;20413;-79
2023/09/10 03:42:38;;;;;;;18.05;11.40;;;;;;;22.38;48.86;101431.19;4959401;28;20137;-78
2023/09/10 03:45:09;;;;;;;18.15;10.88;;;;;;;22.18;48.95;101384.97;4951240;28;20240;-79
2023/09/10 03:47:37;;;;;;;18.17;11.35;;;;;;;22.35;48.79;101417.19;4949516;28;20927;-78
2023/09/10 03:50:11;;;;;;;16.08;10.77;;;;;;;22.38;48.72;101412.25;4955388;28;20112;-78
2023/09/10 03:52:39;;;;;;;18.83;11.40;;;;;;;22.45;49.22;101411.44;4946091;28;20132;-80
2023/09/10 03:55:06;;;;;;;20.70;11.98;;;;;;;22.47;48.93;101403.97;4963048;28;20386;-80
2023/09/10 03:57:33;;;;;;;13.27;10.95;;;;;;;22.05;52.33;101314.56;4955519;28;20058;-80
2023/09/10 04:00:00;;;;;;;16.23;11.07;;;;;;;22.79;49.57;101414.22;4955487;28;20064;-76
2023/09/10 04:02:28;;;;;;;14.23;10.43;;;;;;;22.78;49.54;101406.31;4933883;28;20065;-79
2023/09/10 04:04:55;;;;;;;24.27;11.43;;;;;;;22.68;48.29;101385.00;4950179;28;20082;-78
2023/09/10 04:07:22;;;;;;;18.42;11.85;;;;;;;22.78;47.84;101401.72;4915076;28;20058;-77
2023/09/10 04:09:49;;;;;;;16.02;11.30;;;;;;;22.63;48.06;101382.03;4952748;28;20050;-79
2023/09/10 04:12:16;;;;;;;18.05;11.55;;;;;;;22.56;49.22;101359.50;4946837;28;20051;-79
2023/09/10 04:14:43;;;;;;;14.77;11.13;;;;;;;22.86;48.79;101408.00;4936461;28;20522;-77
2023/09/10 04:17:17;;;;;;;17.27;11.45;;;;;;;22.84;47.88;101408.19;4946720;28;20640;-78
2023/09/10 04:19:44;;;;;;;15.00;10.80;;;;;;;22.53;47.94;101366.16;4953725;28;20061;-78
2023/09/10 04:22:14;;;;;;;15.10;11.20;;;;;;;22.53;47.95;101378.84;4939230;28;20244;-79
2023/09/10 04:24:41;;;;;;;13.15;10.27;;;;;;;22.69;48.08;101400.19;4948901;28;20058;-77
2023/09/10 04:27:11;;;;;;;21.08;11.57;;;;;;;21.95;48.67;101287.03;4942648;28;20050;-79
2023/09/10 04:29:41;;;;;;;15.23;12.02;;;;;;;22.71;49.06;101411.66;4930071;28;20300;-80
2023/09/10 04:32:11;;;;;;;15.05;10.52;;;;;;;22.63;48.61;101386.63;4950090;28;20092;-78
2023/09/10 04:34:43;;;;;;;19.88;11.30;;;;;;;22.65;48.63;101396.22;4947110;28;20830;-80
2023/09/10 04:37:13;;;;;;;15.85;10.98;;;;;;;22.77;49.71;101404.63;4950812;28;20179;-79
2023/09/10 04:39:40;;;;;;;16.23;11.13;;;;;;;22.77;48.58;101410.88;4952694;28;20407;-77
2023/09/10 04:42:07;;;;;;;17.05;10.90;;;;;;;22.61;48.64;101389.53;4943435;28;20393;-79
2023/09/10 04:44:34;;;;;;;15.80;11.27;;;;;;;22.79;48.70;101425.06;4942721;28;20133;-79
2023/09/10 04:47:01;;;;;;;16.48;11.15;;;;;;;22.81;49.02;101422.97;4956322;28;20054;-77
2023/09/10 04:49:28;;;;;;;22.08;11.07;;;;;;;22.76;49.65;101403.78;4955555;28;20425;-79
2023/09/10 04:51:55;;;;;;;17.80;11.68;;;;;;;22.26;48.24;101319.13;4949733;28;20530;-77
2023/09/10 04:54:22;;;;;;;20.63;11.55;;;;;;;22.89;47.99;101429.25;4950457;28;20157;-79
2023/09/10 04:56:53;;;;;;;15.32;11.13;;;;;;;22.85;47.94;101434.25;4949552;28;20057;-80
2023/09/10 04:59:22;;;;;;;15.68;11.38;;;;;;;22.71;48.20;101425.19;4941935;28;20065;-78
2023/09/10 05:01:49;;;;;;;17.13;10.68;;;;;;;22.74;48.48;101437.50;4966583;28;20054;-78
2023/09/10 05:04:20;;;;;;;15.93;11.60;;;;;;;22.72;49.04;101434.13;4945846;28;20133;-80
2023/09/10 05:06:48;;;;;;;10.75;9.38;;;;;;;22.81;50.04;101439.22;4948632;28;20057;-79
2023/09/10 05:09:17;;;;;;;20.45;11.27;;;;;;;22.76;50.25;101436.25;4944193;28;20046;-80
2023/09/10 05:11:47;;;;;;;21.50;11.80;;;;;;;22.91;49.41;101443.44;4954523;28;20552;-79
2023/09/10 05:14:14;;;;;;;22.67;11.88;;;;;;;22.82;48.33;101435.47;4959318;28;20590;-80
2023/09/10 05:16:41;;;;;;;15.75;11.60;;;;;;;22.63;48.52;101425.34;4952116;28;20676;-80
2023/09/10 05:19:08;;;;;;;17.08;12.27;;;;;;;22.76;48.44;101457.91;4955574;28;20320;-79
2023/09/10 05:21:34;;;;;;;26.55;12.73;;;;;;;22.71;48.57;101444.13;4954673;28;20383;-77
2023/09/10 05:24:01;;;;;;;18.60;11.38;;;;;;;22.77;50.00;101454.19;4933636;28;20298;-79
2023/09/10 05:26:28;;;;;;;15.63;11.85;;;;;;;22.67;49.42;101450.13;4949789;28;20146;-80
2023/09/10 05:28:55;;;;;;;17.73;11.65;;;;;;;22.39;49.41;101407.66;4944497;28;20445;-77
2023/09/10 05:31:22;;;;;;;18.73;11.25;;;;;;;22.51;49.00;101426.91;4958577;28;20128;-78
2023/09/10 05:33:50;;;;;;;16.35;12.32;;;;;;;22.65;49.29;101460.31;4949667;28;20085;-79
2023/09/10 05:36:19;;;;;;;15.07;11.53;;;;;;;22.61;50.02;101457.16;4946929;28;20137;-80
2023/09/10 05:38:49;;;;;;;20.40;12.27;;;;;;;22.29;50.37;101402.59;4959463;28;20380;-78
2023/09/10 05:41:16;;;;;;;19.80;12.10;;;;;;;22.60;50.65;101450.09;4953384;28;20407;-80
2023/09/10 05:43:43;;;;;;;23.83;12.15;;;;;;;22.51;50.98;101435.84;4957764;28;20057;-78
2023/09/10 05:46:10;;;;;;;15.93;12.00;;;;;;;22.54;50.34;101434.63;4955050;28;20050;-78
2023/09/10 05:48:37;;;;;;;20.63;12.05;;;;;;;22.67;50.24;101442.00;4953194;28;20133;-77
2023/09/10 05:51:04;;;;;;;19.23;12.13;;;;;;;22.65;50.37;101435.94;4956935;28;20042;-79
2023/09/10 05:53:31;;;;;;;18.25;12.05;;;;;;;22.61;50.83;101441.75;4964084;28;20054;-78
2023/09/10 05:56:02;;;;;;;21.33;12.52;;;;;;;22.74;50.74;101445.59;4944758;28;20054;-79
2023/09/10 05:58:31;;;;;;;18.27;12.45;;;;;;;22.68;50.66;101439.13;4926916;28;20125;-78
2023/09/10 06:00:58;;;;;;;17.83;12.45;;;;;;;22.68;50.40;101433.72;4928419;28;20147;-78
2023/09/10 06:03:26;;;;;;;19.30;12.50;;;;;;;22.78;50.02;101439.59;4928935;28;20054;-79
2023/09/10 06:05:56;;;;;;;19.85;12.55;;;;;;;22.91;50.17;101460.53;4944895;28;20042;-81
2023/09/10 06:08:32;;;;;;;15.75;11.80;;;;;;;22.90;50.47;101447.19;4961073;28;20061;-80
2023/09/10 06:10:59;;;;;;;24.73;12.55;;;;;;;23.05;49.57;101456.06;4965488;28;20065;-79
2023/09/10 06:13:28;;;;;;;17.98;11.55;;;;;;;23.05;49.38;101445.25;4961306;28;20533;-77
2023/09/10 06:15:54;;;;;;;15.75;12.25;;;;;;;23.14;48.67;101448.66;4936936;28;20050;-79
2023/09/10 06:18:23;;;;;;;15.35;11.57;;;;;;;23.18;48.59;101456.19;4943860;28;20065;-78
2023/09/10 06:20:50;;;;;;;19.30;12.77;;;;;;;23.06;49.07;101441.53;4952741;28;20046;-79
2023/09/10 06:23:17;;;;;;;16.85;11.93;;;;;;;23.04;49.17;101427.34;4963846;28;20054;-77
2023/09/10 06:25:45;;;;;;;18.65;12.27;;;;;;;23.08;49.00;101434.00;4958698;28;20506;-77
2023/09/10 06:28:12;;;;;;;18.58;12.38;;;;;;;23.24;48.81;101471.63;4954292;28;20432;-78
2023/09/10 06:30:40;;;;;;;16.40;11.23;;;;;;;23.26;49.01;101463.31;4965859;28;20061;-76
2023/09/10 06:33:08;;;;;;;16.15;12.23;;;;;;;23.23;48.92;101448.28;4960254;28;20043;-78
2023/09/10 06:35:36;;;;;;;15.63;12.07;;;;;;;23.22;48.98;101446.59;4954853;28;20054;-78
2023/09/10 06:38:03;;;;;;;16.98;11.10;;;;;;;23.41;48.89;101474.00;4944155;28;20141;-78
2023/09/10 06:40:29;;;;;;;22.40;13.05;;;;;;;23.39;48.33;101454.41;4960201;28;20081;-77
2023/09/10 06:42:57;;;;;;;23.75;11.52;;;;;;;23.35;48.81;101445.00;4956377;28;20702;-78
2023/09/10 06:45:23;;;;;;;16.35;11.70;;;;;;;23.45;48.05;101448.19;4955888;28;20070;-79
2023/09/10 06:47:50;;;;;;;17.73;12.02;;;;;;;23.51;47.76;101449.25;4961656;28;20050;-78
2023/09/10 06:50:18;;;;;;;16.05;11.68;;;;;;;23.62;48.00;101456.81;4959905;28;20042;-78
2023/09/10 06:52:48;;;;;;;17.38;12.45;;;;;;;23.78;47.29;101472.75;4959270;28;20050;-78
2023/09/10 06:55:17;;;;;;;19.13;11.70;;;;;;;23.81;47.95;101474.22;4966671;28;20127;-78
2023/09/10 06:57:44;;;;;;;16.38;11.27;;;;;;;23.77;47.42;101454.81;4954805;28;20054;-77
2023/09/10 07:00:11;;;;;;;18.00;11.88;;;;;;;23.85;47.65;101467.34;4955818;28;20289;-80
2023/09/10 07:02:38;;;;;;;17.58;11.57;;;;;;;23.97;46.71;101473.03;4956960;28;20112;-78
2023/09/10 07:05:05;;;;;;;18.60;12.98;;;;;;;24.03;46.31;101481.19;4958587;28;20046;-79
2023/09/10 07:07:35;;;;;;;15.13;11.88;;;;;;;23.95;47.36;101481.34;4955703;28;20540;-80
2023/09/10 07:10:02;;;;;;;20.33;11.68;;;;;;;23.95;47.46;101485.94;4959060;28;20167;-80
2023/09/10 07:12:29;;;;;;;17.13;11.75;;;;;;;24.01;48.15;101479.72;4956041;28;20062;-79
2023/09/10 07:14:56;;;;;;;15.23;11.85;;;;;;;24.00;47.08;101467.19;4963355;28;20400;-80
2023/09/10 07:17:23;;;;;;;19.63;12.95;;;;;;;23.84;48.24;101425.03;4953236;28;20514;-78
2023/09/10 07:19:50;;;;;;;16.55;11.85;;;;;;;24.14;47.40;101471.63;4955653;28;20629;-77
2023/09/10 07:22:18;;;;;;;14.48;10.30;;;;;;;24.27;49.15;101492.50;4955246;28;20053;-79
2023/09/10 07:24:45;;;;;;;17.73;12.40;;;;;;;24.26;47.35;101485.41;4962483;28;20061;-78
2023/09/10 07:27:12;;;;;;;20.95;13.10;;;;;;;24.33;47.97;101494.41;4956026;28;20046;-79
2023/09/10 07:29:39;;;;;;;19.58;13.20;;;;;;;24.40;47.00;101500.69;4971136;28;20252;-80
2023/09/10 07:32:08;;;;;;;22.83;13.73;;;;;;;24.39;48.22;101480.00;4961474;28;20050;-79
2023/09/10 07:34:37;;;;;;;17.92;12.68;;;;;;;24.25;48.08;101456.63;4955303;28;20054;-78
2023/09/10 07:37:05;;;;;;;20.13;12.50;;;;;;;24.49;47.74;101496.75;4958704;28;20046;-78
2023/09/10 07:39:32;;;;;;;23.45;14.80;;;;;;;24.44;47.51;101472.09;4961328;28;20060;-79
2023/09/10 07:41:59;;;;;;;15.52;12.57;;;;;;;24.69;48.87;101499.50;4956416;28;20133;-76
2023/09/10 07:44:26;;;;;;;16.27;12.30;;;;;;;24.56;49.50;101471.50;4967566;28;20450;-77
2023/09/10 07:46:55;;;;;;;19.63;14.77;;;;;;;24.76;48.86;101502.22;4954872;28;20574;-78
2023/09/10 07:49:28;;;;;;;26.20;16.45;;;;;;;24.67;47.10;101470.88;4954582;28;20133;-78
2023/09/10 07:51:54;;;;;;;24.25;18.25;;;;;;;24.70;47.37;101494.88;4939599;28;20058;-77
2023/09/10 07:54:21;;;;;;;20.23;15.02;;;;;;;24.75;47.35;101495.09;4949625;28;20054;-76
2023/09/10 07:56:49;;;;;;;24.77;15.25;;;;;;;24.72;47.59;101509.09;4944228;28;20116;-79
2023/09/10 07:59:16;;;;;;;24.75;16.02;;;;;;;24.71;47.62;101504.69;4953734;28;20412;-79
2023/09/10 08:01:43;;;;;;;27.10;16.30;;;;;;;24.63;48.11;101497.59;4954973;28;20537;-79
2023/09/10 08:04:10;;;;;;;20.60;14.63;;;;;;;24.62;48.15;101500.53;4961098;28;20069;-77
2023/09/10 08:06:38;;;;;;;21.25;14.68;;;;;;;24.77;47.91;101520.16;4935109;28;20568;-78
2023/09/10 08:09:05;;;;;;;26.70;15.82;;;;;;;24.51;47.54;101459.38;4930579;28;20080;-75
2023/09/10 08:11:35;;;;;;;20.02;17.00;;;;;;;24.68;47.65;101473.38;4920965;28;20141;-79
2023/09/10 08:14:02;;;;;;;23.23;15.43;;;;;;;24.78;48.38;101500.09;4937307;28;20053;-78
2023/09/10 08:16:29;;;;;;;22.80;14.80;;;;;;;24.75;49.28;101514.09;4942982;28;20546;-78
2023/09/10 08:18:55;;;;;;;17.83;14.10;;;;;;;24.78;48.99;101491.97;4937577;28;20053;-78
2023/09/10 08:21:23;;;;;;;22.92;17.30;;;;;;;24.88;49.25;101507.81;4934029;28;20714;-77
2023/09/10 08:23:50;;;;;;;22.80;16.02;;;;;;;25.00;47.96;101508.03;4961950;28;20401;-78
2023/09/10 08:26:17;;;;;;;26.50;16.60;;;;;;;24.97;48.35;101505.75;4942328;28;20061;-80
2023/09/10 08:28:53;;;;;;;19.30;15.48;;;;;;;24.79;48.95;101485.50;4939960;28;20088;-79
2023/09/10 08:31:20;;;;;;;22.75;16.70;;;;;;;24.97;48.98;101500.31;4936298;28;20049;-79
2023/09/10 08:33:47;;;;;;;17.73;14.60;;;;;;;25.16;48.78;101504.91;4945105;28;20053;-77
2023/09/10 08:36:14;;;;;;;19.17;14.68;;;;;;;25.06;48.95;101493.63;4928569;28;20137;-78
2023/09/10 08:38:42;;;;;;;21.60;14.55;;;;;;;25.07;49.27;101487.13;4940519;28;20212;-79
2023/09/10 08:41:28;;;;;;;27.70;17.02;;;;;;;24.66;49.62;101410.31;4933808;28;20069;-80
2023/09/10 08:43:58;;;;;;;16.50;13.48;;;;;;;25.24;49.69;101487.56;4927915;28;20476;-78
2023/09/10 08:46:32;;;;;;;23.10;17.13;;;;;;;25.31;49.26;101499.25;4926204;28;20503;-77
2023/09/10 08:49:09;;;;;;;22.15;15.05;;;;;;;25.07;49.33;101459.97;4960270;28;20136;-79
2023/09/10 08:51:46;;;;;;;25.33;16.35;;;;;;;24.78;49.44;101386.06;4962880;28;20167;-79
2023/09/10 08:54:15;;;;;;;22.40;15.85;;;;;;;25.40;49.29;101480.84;4942960;28;20046;-78
2023/09/10 08:56:48;;;;;;;30.63;16.50;;;;;;;25.43;48.24;101464.09;4934992;28;20057;-78
2023/09/10 08:59:21;;;;;;;26.00;16.30;;;;;;;25.60;47.83;101478.88;4928289;28;20050;-81
2023/09/10 09:01:49;;;;;;;22.13;14.88;;;;;;;25.68;48.99;101505.00;4931919;28;20333;-79
2023/09/10 09:04:16;;;;;;;23.13;15.95;;;;;;;25.74;48.41;101496.81;4931194;28;20585;-80
2023/09/10 09:06:52;;;;;;;17.50;14.18;;;;;;;25.61;48.89;101472.41;4950324;28;20053;-79
2023/09/10 09:09:20;;;;;;;19.83;14.02;;;;;;;25.75;49.08;101490.34;4926742;28;20078;-77
2023/09/10 09:11:53;;;;;;;25.42;15.73;;;;;;;25.88;49.16;101502.25;4937718;28;20042;-81
2023/09/10 09:14:21;;;;;;;21.85;15.52;;;;;;;26.04;48.68;101501.72;4930803;28;20442;-78
2023/09/10 09:16:50;;;;;;;21.73;15.57;;;;;;;26.01;48.07;101473.06;4924021;28;20054;-78
2023/09/10 09:19:18;;;;;;;14.18;12.40;;;;;;;26.00;48.84;101482.31;4922536;28;20595;-79
2023/09/10 09:21:51;;;;;;;17.98;13.55;;;;;;;25.84;48.86;101432.97;4940669;28;20065;-78
2023/09/10 09:24:22;;;;;;;19.48;15.30;;;;;;;26.29;47.97;101487.34;4938103;28;20133;-79
2023/09/10 09:26:52;;;;;;;22.70;15.40;;;;;;;26.28;48.51;101466.63;4927265;28;20058;-78
2023/09/10 09:29:21;;;;;;;21.55;15.23;;;;;;;26.38;47.98;101469.69;4936298;28;20084;-79
2023/09/10 09:31:48;;;;;;;17.80;13.65;;;;;;;26.46;48.69;101472.19;4933863;28;20490;-79
2023/09/10 09:34:17;;;;;;;22.17;15.77;;;;;;;26.79;47.68;101487.44;4924228;28;20058;-80
2023/09/10 09:36:51;;;;;;;19.45;15.32;;;;;;;26.94;46.50;101479.75;4924348;28;20499;-80
2023/09/10 09:39:20;;;;;;;19.67;15.48;;;;;;;27.08;46.57;101488.63;4939220;28;20050;-79
2023/09/10 09:41:51;;;;;;;17.55;15.25;;;;;;;26.85;46.10;101432.91;4941009;28;20491;-80
2023/09/10 09:44:20;;;;;;;27.95;14.95;;;;;;;27.22;45.73;101471.13;4944426;28;20053;-78
2023/09/10 09:46:48;;;;;;;19.42;15.38;;;;;;;27.36;45.56;101469.09;4939277;28;20062;-79
2023/09/10 09:49:16;;;;;;;19.30;15.15;;;;;;;27.54;46.03;101478.31;4942919;28;20145;-79
2023/09/10 09:51:46;;;;;;;19.60;14.48;;;;;;;27.64;45.50;101467.69;4944020;28;20054;-80
2023/09/10 09:54:15;;;;;;;19.77;13.80;;;;;;;27.73;44.68;101481.88;4924868;28;20046;-79
2023/09/10 09:56:43;;;;;;;17.48;15.38;;;;;;;27.91;44.57;101488.16;4916788;28;20066;-79
2023/09/10 09:59:10;;;;;;;19.23;15.25;;;;;;;28.08;43.93;101482.88;4920775;28;20047;-79
2023/09/10 10:01:41;;;;;;;17.75;13.90;;;;;;;28.15;44.28;101465.56;4920640;28;20578;-79
2023/09/10 10:04:09;;;;;;;16.20;13.80;;;;;;;28.01;44.11;101434.91;4923114;28;20149;-80
2023/09/10 10:06:37;;;;;;;18.80;15.63;;;;;;;28.22;43.62;101439.84;4957959;28;20313;-79
2023/09/10 10:09:15;;;;;;;26.80;15.77;;;;;;;28.47;42.95;101466.16;4939737;28;20133;-80
2023/09/10 10:11:42;;;;;;;19.38;15.18;;;;;;;28.61;43.05;101481.25;4945445;28;20497;-78
2023/09/10 10:14:10;;;;;;;21.90;17.20;;;;;;;28.91;41.35;101469.41;4955508;28;20140;-80
2023/09/10 10:16:37;;;;;;;20.40;15.32;;;;;;;28.66;41.24;101429.47;4946426;28;20078;-77
2023/09/10 10:19:05;;;;;;;18.85;14.77;;;;;;;28.59;41.62;101412.38;4939644;28;20486;-78
2023/09/10 10:21:32;;;;;;;20.52;15.02;;;;;;;28.63;41.96;101412.75;4941245;28;20050;-80
2023/09/10 10:24:02;;;;;;;17.90;13.98;;;;;;;29.07;41.72;101446.84;4943518;28;20658;-79
2023/09/10 10:26:30;;;;;;;20.90;15.43;;;;;;;29.05;41.64;101432.56;4945585;28;20050;-79
2023/09/10 10:28:58;;;;;;;20.77;15.32;;;;;;;29.09;42.11;101438.41;4918732;28;20069;-77
2023/09/10 10:31:32;;;;;;;21.40;14.73;;;;;;;29.11;41.36;101404.31;4952586;28;20084;-78
2023/09/10 10:34:16;;;;;;;21.48;13.90;;;;;;;29.24;41.83;101448.84;4935470;28;21025;-78
2023/09/10 10:36:55;;;;;;;15.90;12.90;;;;;;;29.03;41.43;101434.72;4935215;28;20509;-79
2023/09/10 10:39:36;;;;;;;16.77;13.30;;;;;;;29.11;41.02;101437.09;4935734;28;20176;-79
2023/09/10 10:42:08;;;;;;;19.50;15.05;;;;;;;28.93;41.41;101402.53;4954403;28;20069;-80
2023/09/10 10:44:37;;;;;;;15.63;13.38;;;;;;;29.04;42.66;101435.53;4940579;28;20046;-79
2023/09/10 10:47:17;;;;;;;20.70;13.98;;;;;;;28.51;41.36;101339.81;4918588;28;20102;-79
2023/09/10 10:49:52;;;;;;;18.50;15.70;;;;;;;29.34;40.82;101446.34;4930848;28;20306;-79
2023/09/10 10:52:31;;;;;;;20.45;15.07;;;;;;;29.53;40.43;101439.63;4941290;28;20054;-80
2023/09/10 10:54:59;;;;;;;16.35;13.10;;;;;;;29.51;40.54;101386.22;4957102;28;20093;-80
2023/09/10 10:57:27;;;;;;;16.15;13.50;;;;;;;29.79;41.31;101438.25;4944351;28;20292;-78
2023/09/10 10:59:54;;;;;;;19.40;14.07;;;;;;;29.44;41.36;101391.84;4940152;28;20137;-79
2023/09/10 11:02:24;;;;;;;18.92;14.50;;;;;;;29.64;39.67;101434.34;4948946;28;20058;-79
2023/09/10 11:04:54;;;;;;;15.70;13.67;;;;;;;29.98;40.61;101440.81;4989434;28;20657;-79
2023/09/10 11:07:22;;;;;;;20.30;14.63;;;;;;;29.71;39.95;101418.66;4957918;28;20854;-78
2023/09/10 11:09:49;;;;;;;17.90;13.48;;;;;;;29.73;40.19;101421.97;4969239;28;20577;-77
2023/09/10 11:12:16;;;;;;;22.25;15.63;;;;;;;29.67;41.33;101417.50;4961020;28;20128;-77
2023/09/10 11:14:59;;;;;;;16.08;14.35;;;;;;;29.84;39.93;101423.00;4958536;28;20064;-78
2023/09/10 11:17:35;;;;;;;15.48;13.88;;;;;;;29.25;38.72;101289.19;4956354;28;20136;-78
2023/09/10 11:20:06;;;;;;;16.35;14.35;;;;;;;30.31;38.42;101423.59;4972778;28;20083;-78